createdAt,value
2022-12-12T00:00:11.797Z,0
2022-12-12T00:01:12.113Z,0
2022-12-12T00:02:11.826Z,0
2022-12-12T00:03:12.041Z,0
2022-12-12T00:04:11.692Z,0
2022-12-12T00:05:12.201Z,0
2022-12-12T00:06:11.914Z,0
2022-12-12T00:07:11.369Z,0
2022-12-12T00:08:11.607Z,0
2022-12-12T00:09:11.323Z,0
2022-12-12T00:10:11.341Z,0
2022-12-12T00:11:11.542Z,0
2022-12-12T00:12:11.526Z,0
2022-12-12T00:13:10.992Z,0
2022-12-12T00:14:11.733Z,0
2022-12-12T00:15:18.537Z,0
2022-12-12T00:16:17.233Z,0
2022-12-12T00:17:10.913Z,0
2022-12-12T00:18:16.466Z,0
2022-12-12T00:19:11.398Z,0
2022-12-12T00:20:11.104Z,0
2022-12-12T00:21:11.054Z,0
2022-12-12T00:22:11.297Z,0
2022-12-12T00:23:11.523Z,0
2022-12-12T00:24:10.985Z,0
2022-12-12T00:25:11.263Z,0
2022-12-12T00:26:16.670Z,0
2022-12-12T00:27:17.190Z,0
2022-12-12T00:28:11.187Z,0
2022-12-12T00:29:10.631Z,0
2022-12-12T00:30:10.863Z,0
2022-12-12T00:31:11.612Z,0
2022-12-12T00:32:10.565Z,0
2022-12-12T00:33:11.053Z,0
2022-12-12T00:34:11.029Z,0
2022-12-12T00:35:11.277Z,0
2022-12-12T00:36:12.254Z,0
2022-12-12T00:37:11.727Z,0
2022-12-12T00:38:12.206Z,0
2022-12-12T00:39:19.090Z,0
2022-12-12T00:40:11.661Z,0
2022-12-12T00:41:11.901Z,0
2022-12-12T00:42:12.126Z,0
2022-12-12T00:43:11.851Z,0
2022-12-12T00:44:11.845Z,0
2022-12-12T00:45:12.387Z,0
2022-12-12T00:46:11.717Z,0
2022-12-12T00:47:11.812Z,0
2022-12-12T00:48:11.986Z,0
2022-12-12T00:49:11.978Z,0
2022-12-12T00:50:11.455Z,0
2022-12-12T00:51:11.706Z,0
2022-12-12T00:52:11.133Z,0
2022-12-12T00:53:11.374Z,0
2022-12-12T00:54:11.352Z,0
2022-12-12T00:55:12.016Z,0
2022-12-12T00:56:11.336Z,0
2022-12-12T00:57:11.530Z,0
2022-12-12T00:58:11.505Z,0
2022-12-12T00:59:10.988Z,0
2022-12-12T01:00:11.484Z,0
2022-12-12T01:01:11.500Z,0
2022-12-12T01:02:11.873Z,0
2022-12-12T01:03:12.024Z,0
2022-12-12T01:04:11.383Z,0
2022-12-12T01:05:11.500Z,0
2022-12-12T01:06:10.820Z,0
2022-12-12T01:07:11.594Z,0
2022-12-12T01:08:11.643Z,0
2022-12-12T01:09:11.255Z,0
2022-12-12T01:10:11.234Z,0
2022-12-12T01:11:11.221Z,0
2022-12-12T01:12:11.204Z,0
2022-12-12T01:13:10.672Z,0
2022-12-12T01:14:11.153Z,0
2022-12-12T01:15:11.433Z,0
2022-12-12T01:16:11.831Z,0
2022-12-12T01:17:10.580Z,0
2022-12-12T01:18:11.073Z,0
2022-12-12T01:19:11.093Z,0
2022-12-12T01:20:11.020Z,0
2022-12-12T01:21:10.489Z,0
2022-12-12T01:22:10.984Z,0
2022-12-12T01:23:10.968Z,0
2022-12-12T01:24:11.192Z,0
2022-12-12T01:25:10.950Z,0
2022-12-12T01:26:10.882Z,0
2022-12-12T01:27:11.115Z,0
2022-12-12T01:28:11.100Z,0
2022-12-12T01:29:10.830Z,0
2022-12-12T01:30:10.813Z,0
2022-12-12T01:31:11.045Z,0
2022-12-12T01:32:11.044Z,0
2022-12-12T01:33:10.729Z,0
2022-12-12T01:34:42.780Z,0
2022-12-12T01:35:11.326Z,0
2022-12-12T01:36:10.927Z,0
2022-12-12T01:37:10.633Z,0
2022-12-12T01:38:10.873Z,0
2022-12-12T01:39:10.934Z,0
2022-12-12T01:40:10.574Z,0
2022-12-12T01:41:10.542Z,0
2022-12-12T01:42:10.262Z,0
2022-12-12T01:43:10.246Z,0
2022-12-12T01:44:10.492Z,0
2022-12-12T01:45:10.779Z,0
2022-12-12T01:46:10.363Z,0
2022-12-12T01:47:10.157Z,0
2022-12-12T01:48:12.496Z,0
2022-12-12T01:49:10.399Z,0
2022-12-12T01:50:10.330Z,0
2022-12-12T01:51:10.628Z,0
2022-12-12T01:52:10.304Z,0
2022-12-12T01:53:10.275Z,0
2022-12-12T01:54:10.246Z,0
2022-12-12T01:55:10.821Z,0
2022-12-12T01:56:10.494Z,0
2022-12-12T01:57:10.292Z,0
2022-12-12T01:58:10.298Z,0
2022-12-12T01:59:10.542Z,0
2022-12-12T02:00:10.526Z,0
2022-12-12T02:01:10.267Z,0
2022-12-12T02:02:10.346Z,0
2022-12-12T02:03:10.185Z,0
2022-12-12T02:04:09.929Z,0
2022-12-12T02:05:10.752Z,0
2022-12-12T02:06:09.867Z,0
2022-12-12T02:07:10.798Z,0
2022-12-12T02:08:10.652Z,0
2022-12-12T02:09:10.704Z,0
2022-12-12T02:10:10.417Z,0
2022-12-12T02:11:10.418Z,0
2022-12-12T02:12:10.379Z,0
2022-12-12T02:13:10.607Z,0
2022-12-12T02:14:10.343Z,0
2022-12-12T02:15:10.508Z,0
2022-12-12T02:16:10.868Z,0
2022-12-12T02:17:10.266Z,0
2022-12-12T02:18:16.940Z,0
2022-12-12T02:19:09.958Z,0
2022-12-12T02:20:09.956Z,0
2022-12-12T02:21:10.433Z,0
2022-12-12T02:22:09.901Z,0
2022-12-12T02:23:10.433Z,0
2022-12-12T02:24:10.093Z,0
2022-12-12T02:25:10.373Z,0
2022-12-12T02:26:09.810Z,0
2022-12-12T02:27:10.065Z,0
2022-12-12T02:28:09.755Z,0
2022-12-12T02:29:09.743Z,0
2022-12-12T02:30:10.238Z,0
2022-12-12T02:31:10.547Z,0
2022-12-12T02:32:10.182Z,0
2022-12-12T02:33:09.387Z,0
2022-12-12T02:34:09.678Z,0
2022-12-12T02:35:09.695Z,0
2022-12-12T02:36:09.595Z,0
2022-12-12T02:37:09.564Z,0
2022-12-12T02:38:09.784Z,0
2022-12-12T02:39:10.203Z,0
2022-12-12T02:40:09.483Z,0
2022-12-12T02:41:09.719Z,0
2022-12-12T02:42:09.699Z,0
2022-12-12T02:43:09.953Z,0
2022-12-12T02:44:09.140Z,0
2022-12-12T02:45:09.123Z,0
2022-12-12T02:46:09.615Z,0
2022-12-12T02:47:09.204Z,0
2022-12-12T02:48:09.295Z,0
2022-12-12T02:49:09.546Z,0
2022-12-12T02:50:09.535Z,0
2022-12-12T02:51:09.235Z,0
2022-12-12T02:52:09.745Z,0
2022-12-12T02:53:09.454Z,0
2022-12-12T02:54:09.435Z,0
2022-12-12T02:55:09.849Z,0
2022-12-12T02:56:09.635Z,0
2022-12-12T02:57:09.371Z,0
2022-12-12T02:58:09.337Z,0
2022-12-12T02:59:09.461Z,0
2022-12-12T03:00:09.576Z,0
2022-12-12T03:01:09.509Z,0
2022-12-12T03:02:09.574Z,0
2022-12-12T03:03:09.492Z,0
2022-12-12T03:04:09.217Z,0
2022-12-12T03:05:09.189Z,0
2022-12-12T03:06:09.175Z,0
2022-12-12T03:07:08.636Z,0
2022-12-12T03:08:09.165Z,0
2022-12-12T03:09:09.084Z,0
2022-12-12T03:10:09.096Z,0
2022-12-12T03:11:09.246Z,0
2022-12-12T03:12:09.305Z,0
2022-12-12T03:13:08.743Z,0
2022-12-12T03:14:08.976Z,0
2022-12-12T03:15:08.995Z,0
2022-12-12T03:16:09.589Z,0
2022-12-12T03:17:08.910Z,0
2022-12-12T03:18:08.892Z,0
2022-12-12T03:19:08.614Z,0
2022-12-12T03:20:08.838Z,0
2022-12-12T03:21:08.573Z,0
2022-12-12T03:22:08.799Z,0
2022-12-12T03:23:08.788Z,0
2022-12-12T03:24:09.046Z,0
2022-12-12T03:25:08.988Z,0
2022-12-12T03:26:08.971Z,0
2022-12-12T03:27:08.988Z,0
2022-12-12T03:28:08.666Z,0
2022-12-12T03:29:08.650Z,0
2022-12-12T03:30:08.642Z,0
2022-12-12T03:31:08.696Z,0
2022-12-12T03:32:08.572Z,0
2022-12-12T03:33:08.299Z,0
2022-12-12T03:49:57.337Z,0
2022-12-12T03:50:56.980Z,0
2022-12-12T03:51:56.945Z,0
2022-12-12T03:52:56.665Z,0
2022-12-12T03:53:56.888Z,0
2022-12-12T03:54:56.609Z,0
2022-12-12T03:55:56.584Z,0
2022-12-12T03:56:56.558Z,0
2022-12-12T03:57:56.542Z,0
2022-12-12T03:58:57.035Z,0
2022-12-12T03:59:56.495Z,0
2022-12-12T04:00:56.977Z,0
2022-12-12T04:01:57.094Z,0
2022-12-12T04:02:57.085Z,0
2022-12-12T04:03:57.063Z,0
2022-12-12T04:04:57.032Z,0
2022-12-12T04:05:57.644Z,0
2022-12-12T04:06:56.991Z,0
2022-12-12T04:07:57.782Z,0
2022-12-12T04:08:57.198Z,0
2022-12-12T04:09:57.188Z,0
2022-12-12T04:10:56.950Z,0
2022-12-12T04:11:56.881Z,0
2022-12-12T04:12:57.106Z,0
2022-12-12T04:13:57.091Z,0
2022-12-12T04:14:57.327Z,0
2022-12-12T04:15:57.039Z,0
2022-12-12T04:16:57.093Z,0
2022-12-12T04:17:57.006Z,0
2022-12-12T04:18:56.976Z,0
2022-12-12T04:19:57.235Z,0
2022-12-12T04:20:56.945Z,0
2022-12-12T04:21:57.310Z,0
2022-12-12T04:22:57.150Z,0
2022-12-12T04:23:56.863Z,0
2022-12-12T04:24:57.109Z,0
2022-12-12T04:25:56.582Z,0
2022-12-12T04:26:57.056Z,0
2022-12-12T04:27:57.033Z,0
2022-12-12T04:28:56.805Z,0
2022-12-12T04:29:56.736Z,0
2022-12-12T04:30:56.455Z,0
2022-12-12T04:31:57.039Z,0
2022-12-12T04:32:56.927Z,0
2022-12-12T04:33:56.395Z,0
2022-12-12T04:34:56.384Z,0
2022-12-12T04:35:56.845Z,0
2022-12-12T04:36:56.829Z,0
2022-12-12T04:37:56.917Z,0
2022-12-12T04:38:56.534Z,0
2022-12-12T04:39:56.512Z,0
2022-12-12T04:40:56.477Z,0
2022-12-12T04:41:56.206Z,0
2022-12-12T04:42:56.442Z,0
2022-12-12T04:43:56.411Z,0
2022-12-12T04:44:56.234Z,0
2022-12-12T04:45:56.370Z,0
2022-12-12T04:46:56.109Z,0
2022-12-12T04:47:56.333Z,0
2022-12-12T04:49:00.513Z,0
2022-12-12T04:49:56.028Z,0
2022-12-12T04:50:56.266Z,0
2022-12-12T04:51:56.262Z,0
2022-12-12T04:52:56.264Z,0
2022-12-12T04:53:56.719Z,0
2022-12-12T04:54:55.921Z,0
2022-12-12T04:55:55.896Z,0
2022-12-12T04:56:55.868Z,0
2022-12-12T04:57:55.848Z,0
2022-12-12T04:58:56.094Z,0
2022-12-12T04:59:55.817Z,0
2022-12-12T05:00:56.330Z,0
2022-12-12T05:02:00.053Z,0
2022-12-12T05:02:55.787Z,0
2022-12-12T05:03:55.985Z,0
2022-12-12T05:04:55.685Z,0
2022-12-12T05:05:55.935Z,0
2022-12-12T05:06:56.165Z,0
2022-12-12T05:07:56.124Z,0
2022-12-12T05:08:55.592Z,0
2022-12-12T05:09:56.217Z,0
2022-12-12T05:10:56.107Z,0
2022-12-12T05:11:56.052Z,0
2022-12-12T05:12:56.013Z,0
2022-12-12T05:13:55.744Z,0
2022-12-12T05:14:55.723Z,0
2022-12-12T05:15:55.952Z,0
2022-12-12T05:16:55.710Z,0
2022-12-12T05:17:55.661Z,0
2022-12-12T05:18:55.384Z,0
2022-12-12T05:19:55.377Z,0
2022-12-12T05:20:55.583Z,0
2022-12-12T05:21:55.820Z,0
2022-12-12T05:22:55.581Z,0
2022-12-12T05:23:55.271Z,0
2022-12-12T05:24:55.493Z,0
2022-12-12T05:25:56.133Z,0
2022-12-12T05:26:55.459Z,0
2022-12-12T05:27:55.690Z,0
2022-12-12T05:28:55.659Z,0
2022-12-12T05:29:55.465Z,0
2022-12-12T05:30:55.542Z,0
2022-12-12T05:31:55.351Z,0
2022-12-12T05:32:55.325Z,0
2022-12-12T05:33:55.040Z,0
2022-12-12T05:34:55.276Z,0
2022-12-12T05:35:55.512Z,0
2022-12-12T05:36:55.486Z,0
2022-12-12T05:37:58.845Z,0
2022-12-12T05:38:54.930Z,0
2022-12-12T05:39:55.420Z,0
2022-12-12T05:40:55.144Z,0
2022-12-12T05:41:55.508Z,0
2022-12-12T05:42:55.128Z,0
2022-12-12T05:43:54.829Z,0
2022-12-12T05:44:54.802Z,0
2022-12-12T05:45:55.233Z,0
2022-12-12T05:46:55.007Z,0
2022-12-12T05:47:54.480Z,0
2022-12-12T05:48:55.041Z,0
2022-12-12T05:49:54.933Z,0
2022-12-12T05:50:54.664Z,0
2022-12-12T05:51:54.634Z,0
2022-12-12T05:52:54.880Z,0
2022-12-12T05:53:55.121Z,0
2022-12-12T05:54:54.834Z,0
2022-12-12T05:55:54.548Z,0
2022-12-12T05:56:54.787Z,0
2022-12-12T05:57:55.124Z,0
2022-12-12T05:58:54.998Z,0
2022-12-12T05:59:54.723Z,0
2022-12-12T06:00:58.566Z,0
2022-12-12T06:01:54.673Z,0
2022-12-12T06:02:54.943Z,0
2022-12-12T06:03:55.275Z,0
2022-12-12T06:04:54.369Z,0
2022-12-12T06:05:54.330Z,0
2022-12-12T06:06:54.565Z,0
2022-12-12T06:07:54.580Z,0
2022-12-12T06:08:54.521Z,0
2022-12-12T06:09:54.754Z,0
2022-12-12T06:10:54.218Z,0
2022-12-12T06:11:54.450Z,0
2022-12-12T06:12:54.456Z,0
2022-12-12T06:13:54.770Z,0
2022-12-12T06:14:54.394Z,0
2022-12-12T06:15:54.429Z,0
2022-12-12T06:16:54.095Z,0
2022-12-12T06:17:54.320Z,0
2022-12-12T06:18:54.037Z,0
2022-12-12T06:19:54.059Z,0
2022-12-12T06:20:54.005Z,0
2022-12-12T06:21:53.970Z,0
2022-12-12T06:23:00.833Z,0
2022-12-12T06:23:54.453Z,0
2022-12-12T06:24:54.170Z,0
2022-12-12T06:25:53.889Z,0
2022-12-12T06:26:54.114Z,0
2022-12-12T06:27:54.367Z,0
2022-12-12T06:28:54.077Z,4
2022-12-12T06:29:54.426Z,0
2022-12-12T06:30:54.162Z,0
2022-12-12T06:31:53.746Z,4
2022-12-12T06:32:54.339Z,0
2022-12-12T06:33:53.727Z,4
2022-12-12T06:34:53.939Z,4
2022-12-12T06:35:53.663Z,4
2022-12-12T06:36:53.901Z,4
2022-12-12T06:37:53.882Z,4
2022-12-12T06:38:54.107Z,8
2022-12-12T06:39:54.088Z,8
2022-12-12T06:40:53.812Z,12
2022-12-12T06:41:53.529Z,12
2022-12-12T06:42:55.887Z,16
2022-12-12T06:43:54.017Z,16
2022-12-12T06:44:53.462Z,20
2022-12-12T06:45:54.122Z,24
2022-12-12T06:46:53.771Z,28
2022-12-12T06:47:53.656Z,32
2022-12-12T06:48:53.389Z,32
2022-12-12T06:49:53.371Z,36
2022-12-12T06:50:53.326Z,40
2022-12-12T06:51:53.075Z,44
2022-12-12T06:52:53.057Z,48
2022-12-12T06:53:53.516Z,56
2022-12-12T06:54:53.813Z,64
2022-12-12T06:55:53.489Z,72
2022-12-12T06:56:56.008Z,84
2022-12-12T06:57:53.435Z,88
2022-12-12T06:58:53.408Z,96
2022-12-12T06:59:53.399Z,100
2022-12-12T07:00:53.627Z,108
2022-12-12T07:01:54.035Z,120
2022-12-12T07:02:53.541Z,124
2022-12-12T07:03:53.560Z,128
2022-12-12T07:04:53.290Z,128
2022-12-12T07:05:53.258Z,136
2022-12-12T07:06:52.987Z,152
2022-12-12T07:07:53.758Z,176
2022-12-12T07:08:52.693Z,196
2022-12-12T07:09:53.180Z,212
2022-12-12T07:10:53.154Z,232
2022-12-12T07:11:52.868Z,252
2022-12-12T07:13:00.772Z,272
2022-12-12T07:13:53.093Z,288
2022-12-12T07:14:52.659Z,300
2022-12-12T07:15:53.290Z,312
2022-12-12T07:16:52.508Z,320
2022-12-12T07:17:53.354Z,332
2022-12-12T07:18:52.732Z,364
2022-12-12T07:19:53.206Z,388
2022-12-12T07:20:52.926Z,404
2022-12-12T07:21:52.655Z,428
2022-12-12T07:22:52.623Z,448
2022-12-12T07:23:52.601Z,456
2022-12-12T07:24:52.962Z,480
2022-12-12T07:25:52.581Z,520
2022-12-12T07:26:52.795Z,536
2022-12-12T07:27:52.783Z,552
2022-12-12T07:28:52.517Z,576
2022-12-12T07:29:52.847Z,584
2022-12-12T07:30:52.907Z,580
2022-12-12T07:31:52.726Z,612
2022-12-12T07:32:52.410Z,640
2022-12-12T07:33:52.993Z,668
2022-12-12T07:34:53.346Z,700
2022-12-12T07:35:52.602Z,728
2022-12-12T07:36:55.423Z,760
2022-12-12T07:37:52.104Z,792
2022-12-12T07:38:52.544Z,824
2022-12-12T07:39:52.275Z,856
2022-12-12T07:40:52.491Z,888
2022-12-12T07:41:52.704Z,932
2022-12-12T07:42:52.437Z,968
2022-12-12T07:43:52.528Z,1004
2022-12-12T07:44:52.394Z,1036
2022-12-12T07:45:52.647Z,1060
2022-12-12T07:46:52.731Z,1072
2022-12-12T07:47:52.343Z,1092
2022-12-12T07:48:52.329Z,1124
2022-12-12T07:49:52.751Z,1168
2022-12-12T07:50:51.999Z,1220
2022-12-12T07:51:56.106Z,1296
2022-12-12T07:52:52.229Z,1364
2022-12-12T07:53:52.203Z,1436
2022-12-12T07:54:52.425Z,1504
2022-12-12T07:55:52.152Z,1568
2022-12-12T07:56:51.881Z,1616
2022-12-12T07:57:51.857Z,1648
2022-12-12T07:58:52.099Z,1660
2022-12-12T07:59:52.055Z,1668
2022-12-12T08:00:51.793Z,1656
2022-12-12T08:01:52.251Z,1640
2022-12-12T08:02:52.024Z,1616
2022-12-12T08:03:52.248Z,1584
2022-12-12T08:04:52.194Z,1552
2022-12-12T08:05:52.292Z,1540
2022-12-12T08:07:02.868Z,1536
2022-12-12T08:07:52.180Z,1528
2022-12-12T08:08:51.870Z,1528
2022-12-12T08:09:51.847Z,1504
2022-12-12T08:10:51.571Z,1500
2022-12-12T08:11:54.072Z,1504
2022-12-12T08:12:51.772Z,1516
2022-12-12T08:13:52.060Z,1528
2022-12-12T08:14:51.484Z,1532
2022-12-12T08:15:51.945Z,1544
2022-12-12T08:16:51.444Z,1588
2022-12-12T08:17:51.940Z,1632
2022-12-12T08:18:51.916Z,1624
2022-12-12T08:19:51.621Z,1652
2022-12-12T08:20:51.941Z,1716
2022-12-12T08:21:51.997Z,1776
2022-12-12T08:22:51.314Z,1800
2022-12-12T08:23:51.282Z,1968
2022-12-12T08:24:51.277Z,2240
2022-12-12T08:25:51.244Z,2140
2022-12-12T08:26:51.217Z,2008
2022-12-12T08:27:51.447Z,1928
2022-12-12T08:28:51.484Z,1884
2022-12-12T08:29:51.152Z,1924
2022-12-12T08:30:51.522Z,1952
2022-12-12T08:31:51.854Z,2112
2022-12-12T08:32:51.612Z,2164
2022-12-12T08:33:51.065Z,2264
2022-12-12T08:34:50.778Z,2288
2022-12-12T08:35:51.051Z,2296
2022-12-12T08:36:51.284Z,2332
2022-12-12T08:37:51.619Z,2396
2022-12-12T08:38:51.246Z,2508
2022-12-12T08:39:58.220Z,2548
2022-12-12T08:40:50.910Z,2524
2022-12-12T08:41:51.155Z,2528
2022-12-12T08:42:50.858Z,2560
2022-12-12T08:43:50.839Z,2576
2022-12-12T08:44:51.085Z,2600
2022-12-12T08:45:51.342Z,2660
2022-12-12T08:46:51.140Z,2772
2022-12-12T08:47:51.009Z,2844
2022-12-12T08:48:50.981Z,2924
2022-12-12T08:49:51.239Z,3016
2022-12-12T08:50:51.218Z,3124
2022-12-12T08:51:51.195Z,3156
2022-12-12T08:52:50.653Z,3200
2022-12-12T08:53:51.263Z,3264
2022-12-12T08:54:50.608Z,3296
2022-12-12T08:55:50.580Z,3216
2022-12-12T08:56:50.809Z,3076
2022-12-12T08:57:50.535Z,2972
2022-12-12T08:58:50.531Z,2920
2022-12-12T08:59:50.252Z,2884
2022-12-12T09:00:50.472Z,2804
2022-12-12T09:01:50.995Z,2736
2022-12-12T09:02:51.405Z,2692
2022-12-12T09:03:50.660Z,2620
2022-12-12T09:04:50.640Z,2540
2022-12-12T09:05:50.608Z,2480
2022-12-12T09:06:50.613Z,2456
2022-12-12T09:07:51.082Z,2424
2022-12-12T09:08:50.556Z,2348
2022-12-12T09:09:50.893Z,2260
2022-12-12T09:10:50.519Z,2232
2022-12-12T09:11:50.495Z,2204
2022-12-12T09:12:50.210Z,2192
2022-12-12T09:13:50.437Z,2184
2022-12-12T09:14:50.717Z,2160
2022-12-12T09:15:50.962Z,2128
2022-12-12T09:16:50.560Z,2096
2022-12-12T09:17:50.358Z,2100
2022-12-12T09:18:55.879Z,2112
2022-12-12T09:19:50.122Z,2156
2022-12-12T09:20:50.037Z,2228
2022-12-12T09:21:50.267Z,2308
2022-12-12T09:22:50.261Z,2380
2022-12-12T09:23:50.493Z,2416
2022-12-12T09:24:50.211Z,2456
2022-12-12T09:25:50.576Z,2492
2022-12-12T09:26:50.162Z,2516
2022-12-12T09:27:50.396Z,2516
2022-12-12T09:28:50.134Z,2524
2022-12-12T09:29:50.375Z,2408
2022-12-12T09:30:50.114Z,2472
2022-12-12T09:31:50.648Z,2496
2022-12-12T09:32:49.814Z,2532
2022-12-12T09:33:50.034Z,2556
2022-12-12T09:34:50.000Z,2568
2022-12-12T09:35:50.238Z,2600
2022-12-12T09:36:49.689Z,2620
2022-12-12T09:37:49.923Z,2616
2022-12-12T09:38:49.957Z,2600
2022-12-12T09:39:49.622Z,2648
2022-12-12T09:40:49.620Z,2736
2022-12-12T09:41:50.205Z,2772
2022-12-12T09:42:49.566Z,2792
2022-12-12T09:43:50.052Z,2816
2022-12-12T09:44:50.027Z,2868
2022-12-12T09:45:50.188Z,2908
2022-12-12T09:46:49.728Z,2936
2022-12-12T09:47:49.452Z,2976
2022-12-12T09:48:49.948Z,3008
2022-12-12T09:49:51.279Z,3016
2022-12-12T09:50:49.380Z,3020
2022-12-12T09:51:49.890Z,3112
2022-12-12T09:52:49.851Z,3160
2022-12-12T09:53:49.318Z,3172
2022-12-12T09:54:49.803Z,3156
2022-12-12T09:55:49.560Z,3188
2022-12-12T09:56:49.769Z,3172
2022-12-12T09:57:49.879Z,3112
2022-12-12T09:59:01.406Z,3096
2022-12-12T09:59:49.700Z,3076
2022-12-12T10:00:50.400Z,3112
2022-12-12T10:01:50.215Z,3200
2022-12-12T10:02:49.911Z,3064
2022-12-12T10:03:49.898Z,2940
2022-12-12T10:04:56.355Z,2872
2022-12-12T10:06:07.366Z,2904
2022-12-12T10:06:54.444Z,2904
2022-12-12T10:07:54.911Z,2848
2022-12-12T10:08:54.140Z,2812
2022-12-12T10:09:54.382Z,2740
2022-12-12T10:10:54.855Z,2708
2022-12-12T10:11:54.352Z,2716
2022-12-12T10:12:54.947Z,2776
2022-12-12T10:13:54.803Z,2868
2022-12-12T10:14:54.524Z,2888
2022-12-12T10:15:54.301Z,2920
2022-12-12T10:17:03.096Z,2896
2022-12-12T10:17:54.464Z,2896
2022-12-12T10:18:54.720Z,2952
2022-12-12T10:19:54.430Z,3020
2022-12-12T10:20:54.139Z,3076
2022-12-12T10:21:54.106Z,3088
2022-12-12T10:22:54.612Z,3076
2022-12-12T10:23:53.825Z,3128
2022-12-12T10:24:54.314Z,3260
2022-12-12T10:25:54.023Z,3344
2022-12-12T10:26:54.002Z,3324
2022-12-12T10:27:54.254Z,3344
2022-12-12T10:28:54.594Z,3388
2022-12-12T10:29:54.232Z,3432
2022-12-12T10:30:53.920Z,3460
2022-12-12T10:31:54.716Z,3464
2022-12-12T10:32:54.163Z,3380
2022-12-12T10:33:54.379Z,3300
2022-12-12T10:34:55.211Z,3224
2022-12-12T10:35:54.327Z,3228
2022-12-12T10:36:54.069Z,3240
2022-12-12T10:37:54.017Z,3236
2022-12-12T10:38:53.947Z,3272
2022-12-12T10:39:53.970Z,3304
2022-12-12T10:40:53.696Z,3320
2022-12-12T10:41:54.181Z,3336
2022-12-12T10:42:53.663Z,3356
2022-12-12T10:43:53.889Z,3452
2022-12-12T10:44:54.812Z,3552
2022-12-12T10:45:53.968Z,3488
2022-12-12T10:46:54.416Z,3400
2022-12-12T10:47:53.809Z,3352
2022-12-12T10:48:53.284Z,3388
2022-12-12T10:49:53.846Z,3356
2022-12-12T10:50:53.749Z,3348
2022-12-12T10:51:53.981Z,3392
2022-12-12T10:52:53.456Z,3444
2022-12-12T10:53:53.941Z,3468
2022-12-12T10:54:53.946Z,3548
2022-12-12T10:55:53.637Z,3628
2022-12-12T10:56:53.351Z,3708
2022-12-12T10:57:53.587Z,3728
2022-12-12T10:58:53.573Z,3692
2022-12-12T10:59:53.648Z,3676
2022-12-12T11:00:54.329Z,3688
2022-12-12T11:02:16.555Z,3644
2022-12-12T11:03:00.249Z,3636
2022-12-12T11:03:53.711Z,3656
2022-12-12T11:04:53.176Z,3664
2022-12-12T11:05:53.407Z,3704
2022-12-12T11:06:53.674Z,3788
2022-12-12T11:07:53.445Z,3904
2022-12-12T11:08:53.609Z,4036
2022-12-12T11:09:53.227Z,4156
2022-12-12T11:10:53.309Z,4160
2022-12-12T11:11:53.548Z,4244
2022-12-12T11:12:53.266Z,4332
2022-12-12T11:13:53.250Z,4376
2022-12-12T11:14:53.524Z,4492
2022-12-12T11:15:53.196Z,4452
2022-12-12T11:16:53.917Z,4508
2022-12-12T11:17:52.897Z,4680
2022-12-12T11:18:52.624Z,4792
2022-12-12T11:19:53.122Z,4736
2022-12-12T11:20:53.405Z,4728
2022-12-12T11:21:53.077Z,4592
2022-12-12T11:22:53.061Z,4568
2022-12-12T11:23:53.051Z,4620
2022-12-12T11:24:52.766Z,4664
2022-12-12T11:25:53.004Z,4736
2022-12-12T11:26:53.229Z,4704
2022-12-12T11:27:52.947Z,4612
2022-12-12T11:28:53.189Z,4488
2022-12-12T11:29:52.885Z,4404
2022-12-12T11:30:52.613Z,4356
2022-12-12T11:31:53.405Z,4272
2022-12-12T11:32:53.221Z,4180
2022-12-12T11:33:54.683Z,4164
2022-12-12T11:34:52.790Z,4104
2022-12-12T11:35:54.751Z,3976
2022-12-12T11:36:52.497Z,3876
2022-12-12T11:37:52.222Z,3796
2022-12-12T11:38:52.463Z,3704
2022-12-12T11:39:52.891Z,3580
2022-12-12T11:40:52.663Z,3428
2022-12-12T11:41:52.690Z,3268
2022-12-12T11:42:52.634Z,3164
2022-12-12T11:43:52.870Z,3156
2022-12-12T11:44:52.326Z,3244
2022-12-12T11:45:52.283Z,3316
2022-12-12T11:46:52.826Z,3340
2022-12-12T11:47:52.268Z,3352
2022-12-12T11:48:52.863Z,3372
2022-12-12T11:49:52.503Z,3404
2022-12-12T11:50:52.453Z,3416
2022-12-12T11:51:53.559Z,3212
2022-12-12T11:52:53.040Z,3056
2022-12-12T11:53:52.997Z,2996
2022-12-12T11:54:53.499Z,3052
2022-12-12T11:55:53.212Z,3132
2022-12-12T11:56:53.194Z,3252
2022-12-12T11:57:53.844Z,3400
2022-12-12T11:58:53.407Z,3480
2022-12-12T11:59:53.577Z,3548
2022-12-12T12:00:53.352Z,3560
2022-12-12T12:01:53.083Z,3464
2022-12-12T12:02:53.542Z,3372
2022-12-12T12:03:53.122Z,3332
2022-12-12T12:05:00.293Z,3368
2022-12-12T12:05:52.996Z,3412
2022-12-12T12:06:52.468Z,3432
2022-12-12T12:07:53.677Z,3368
2022-12-12T12:08:52.949Z,3344
2022-12-12T12:09:52.921Z,3336
2022-12-12T12:10:52.373Z,3332
2022-12-12T12:11:52.874Z,3336
2022-12-12T12:12:52.855Z,3412
2022-12-12T12:13:52.577Z,3484
2022-12-12T12:14:52.292Z,3460
2022-12-12T12:15:52.598Z,3436
2022-12-12T12:16:53.067Z,3396
2022-12-12T12:17:53.015Z,3296
2022-12-12T12:18:52.713Z,3196
2022-12-12T12:19:52.958Z,3112
2022-12-12T12:20:53.060Z,3016
2022-12-12T12:21:52.929Z,2924
2022-12-12T12:22:52.644Z,2868
2022-12-12T12:23:57.021Z,2848
2022-12-12T12:24:52.341Z,2836
2022-12-12T12:25:53.212Z,2824
2022-12-12T12:26:52.930Z,2792
2022-12-12T12:27:53.427Z,2764
2022-12-12T12:28:52.883Z,2748
2022-12-12T12:29:53.195Z,2776
2022-12-12T12:30:53.313Z,2852
2022-12-12T12:31:53.066Z,2944
2022-12-12T12:32:53.060Z,3024
2022-12-12T12:33:52.777Z,3128
2022-12-12T12:34:53.291Z,3292
2022-12-12T12:35:52.477Z,3408
2022-12-12T12:36:53.342Z,3460
2022-12-12T12:37:53.502Z,3416
2022-12-12T12:38:53.473Z,3400
2022-12-12T12:39:52.935Z,3424
2022-12-12T12:40:53.450Z,3484
2022-12-12T12:41:52.889Z,3540
2022-12-12T12:42:56.722Z,3528
2022-12-12T12:43:53.123Z,3520
2022-12-12T12:44:52.832Z,3592
2022-12-12T12:45:53.536Z,3648
2022-12-12T12:46:52.545Z,3616
2022-12-12T12:47:53.277Z,3568
2022-12-12T12:48:53.285Z,3600
2022-12-12T12:49:52.889Z,3588
2022-12-12T12:50:52.980Z,3540
2022-12-12T12:51:57.753Z,3452
2022-12-12T12:52:53.207Z,3328
2022-12-12T12:53:52.642Z,3212
2022-12-12T12:54:52.877Z,3176
2022-12-12T12:55:53.105Z,3128
2022-12-12T12:56:52.583Z,3040
2022-12-12T12:57:52.556Z,2888
2022-12-12T12:58:52.785Z,2756
2022-12-12T12:59:52.835Z,2664
2022-12-12T13:00:53.008Z,2580
2022-12-12T13:01:53.061Z,2492
2022-12-12T13:02:52.726Z,2440
2022-12-12T13:03:52.429Z,2348
2022-12-12T13:04:52.671Z,2272
2022-12-12T13:05:52.390Z,2264
2022-12-12T13:06:52.882Z,2304
2022-12-12T13:07:53.135Z,2352
2022-12-12T13:08:52.605Z,2248
2022-12-12T13:09:52.659Z,2096
2022-12-12T13:10:52.283Z,2140
2022-12-12T13:11:52.791Z,2184
2022-12-12T13:12:51.977Z,2148
2022-12-12T13:13:52.473Z,2128
2022-12-12T13:14:52.477Z,2092
2022-12-12T13:15:52.468Z,2092
2022-12-12T13:16:52.149Z,2092
2022-12-12T13:17:52.648Z,2060
2022-12-12T13:18:53.122Z,2024
2022-12-12T13:19:52.424Z,1956
2022-12-12T13:20:52.317Z,1892
2022-12-12T13:21:52.305Z,1840
2022-12-12T13:22:52.294Z,1856
2022-12-12T13:23:52.596Z,1904
2022-12-12T13:24:59.754Z,1904
2022-12-12T13:25:52.215Z,1928
2022-12-12T13:26:52.455Z,1980
2022-12-12T13:27:52.438Z,1960
2022-12-12T13:28:51.899Z,1892
2022-12-12T13:29:52.452Z,1844
2022-12-12T13:30:52.545Z,1840
2022-12-12T13:31:52.344Z,1840
2022-12-12T13:32:52.087Z,1824
2022-12-12T13:33:51.800Z,1804
2022-12-12T13:34:52.025Z,1784
2022-12-12T13:35:52.263Z,1776
2022-12-12T13:36:51.973Z,1780
2022-12-12T13:37:52.212Z,1788
2022-12-12T13:38:52.215Z,1780
2022-12-12T13:39:52.108Z,1756
2022-12-12T13:40:51.916Z,1756
2022-12-12T13:41:51.622Z,1716
2022-12-12T13:42:51.855Z,1640
2022-12-12T13:43:51.832Z,1592
2022-12-12T13:44:51.559Z,1600
2022-12-12T13:45:52.076Z,1656
2022-12-12T13:46:52.256Z,1632
2022-12-12T13:47:51.997Z,1588
2022-12-12T13:48:54.220Z,1584
2022-12-12T13:49:51.552Z,1620
2022-12-12T13:50:51.690Z,1692
2022-12-12T13:51:51.918Z,1760
2022-12-12T13:52:51.627Z,1772
2022-12-12T13:53:51.614Z,1788
2022-12-12T13:54:51.599Z,1728
2022-12-12T13:55:51.741Z,1732
2022-12-12T13:56:51.824Z,1748
2022-12-12T13:57:51.523Z,1636
2022-12-12T13:58:51.520Z,1560
2022-12-12T13:59:51.750Z,1480
2022-12-12T14:00:51.780Z,1460
2022-12-12T14:01:51.705Z,1388
2022-12-12T14:02:53.333Z,1352
2022-12-12T14:03:51.405Z,1364
2022-12-12T14:04:51.395Z,1364
2022-12-12T14:05:51.359Z,1356
2022-12-12T14:06:51.340Z,1308
2022-12-12T14:07:51.805Z,1224
2022-12-12T14:08:51.042Z,1160
2022-12-12T14:09:56.156Z,1108
2022-12-12T14:10:51.270Z,1048
2022-12-12T14:11:51.295Z,996
2022-12-12T14:12:51.235Z,940
2022-12-12T14:13:51.445Z,896
2022-12-12T14:14:51.169Z,852